sensor_id;sensor_type;location;lat;lon;timestamp;pressure;altitude;pressure_sealevel;temperature;humidity
23307;BME280;11822;52.470;10.688;2022-09-02T00:00:59;101424.34;;;16.27;45.65
23307;BME280;11822;52.470;10.688;2022-09-02T00:03:29;101420.69;;;16.23;46.11
23307;BME280;11822;52.470;10.688;2022-09-02T00:05:55;101421.41;;;16.20;45.95
23307;BME280;11822;52.470;10.688;2022-09-02T00:08:21;101422.94;;;16.17;45.80
23307;BME280;11822;52.470;10.688;2022-09-02T00:10:46;101415.81;;;16.16;46.19
23307;BME280;11822;52.470;10.688;2022-09-02T00:13:13;101416.16;;;16.15;45.94
23307;BME280;11822;52.470;10.688;2022-09-02T00:15:39;101416.84;;;16.12;46.13
23307;BME280;11822;52.470;10.688;2022-09-02T00:18:04;101411.69;;;16.10;46.21
23307;BME280;11822;52.470;10.688;2022-09-02T00:20:30;101404.59;;;16.09;46.02
23307;BME280;11822;52.470;10.688;2022-09-02T00:22:56;101404.13;;;16.07;46.20
23307;BME280;11822;52.470;10.688;2022-09-02T00:25:21;101401.72;;;16.05;46.17
23307;BME280;11822;52.470;10.688;2022-09-02T00:27:47;101396.91;;;16.02;46.44
23307;BME280;11822;52.470;10.688;2022-09-02T00:30:12;101402.34;;;15.99;46.29
23307;BME280;11822;52.470;10.688;2022-09-02T00:32:38;101409.00;;;15.98;46.70
23307;BME280;11822;52.470;10.688;2022-09-02T00:35:03;101395.91;;;15.94;46.68
23307;BME280;11822;52.470;10.688;2022-09-02T00:37:29;101399.00;;;15.93;46.60
23307;BME280;11822;52.470;10.688;2022-09-02T00:39:54;101398.94;;;15.89;46.70
23307;BME280;11822;52.470;10.688;2022-09-02T00:42:20;101400.06;;;15.88;46.70
23307;BME280;11822;52.470;10.688;2022-09-02T00:44:46;101394.09;;;15.86;46.73
23307;BME280;11822;52.470;10.688;2022-09-02T00:47:11;101399.59;;;15.86;46.98
23307;BME280;11822;52.470;10.688;2022-09-02T00:49:37;101396.38;;;15.84;46.84
23307;BME280;11822;52.470;10.688;2022-09-02T00:52:06;101394.00;;;15.83;46.98
23307;BME280;11822;52.470;10.688;2022-09-02T00:54:33;101397.09;;;15.81;46.96
23307;BME280;11822;52.470;10.688;2022-09-02T00:56:59;101393.88;;;15.79;46.90
23307;BME280;11822;52.470;10.688;2022-09-02T00:59:28;101396.53;;;15.75;47.05
23307;BME280;11822;52.470;10.688;2022-09-02T01:01:58;101387.81;;;15.73;47.22
23307;BME280;11822;52.470;10.688;2022-09-02T01:04:23;101387.72;;;15.70;47.16
23307;BME280;11822;52.470;10.688;2022-09-02T01:06:50;101391.63;;;15.69;47.26
23307;BME280;11822;52.470;10.688;2022-09-02T01:09:16;101392.31;;;15.65;47.40
23307;BME280;11822;52.470;10.688;2022-09-02T01:11:43;101394.63;;;15.63;47.39
23307;BME280;11822;52.470;10.688;2022-09-02T01:14:09;101390.16;;;15.59;47.73
23307;BME280;11822;52.470;10.688;2022-09-02T01:16:39;101387.28;;;15.55;47.49
23307;BME280;11822;52.470;10.688;2022-09-02T01:19:06;101392.34;;;15.53;47.74
23307;BME280;11822;52.470;10.688;2022-09-02T01:21:37;101387.53;;;15.50;47.76
23307;BME280;11822;52.470;10.688;2022-09-02T01:24:02;101381.94;;;15.46;47.85
23307;BME280;11822;52.470;10.688;2022-09-02T01:26:28;101380.69;;;15.44;47.70
23307;BME280;11822;52.470;10.688;2022-09-02T01:28:53;101381.38;;;15.41;47.79
23307;BME280;11822;52.470;10.688;2022-09-02T01:31:18;101383.69;;;15.39;47.98
23307;BME280;11822;52.470;10.688;2022-09-02T01:33:44;101381.63;;;15.35;47.72
23307;BME280;11822;52.470;10.688;2022-09-02T01:36:09;101374.84;;;15.33;48.07
23307;BME280;11822;52.470;10.688;2022-09-02T01:38:35;101377.59;;;15.33;47.78
23307;BME280;11822;52.470;10.688;2022-09-02T01:41:00;101381.03;;;15.30;48.03
23307;BME280;11822;52.470;10.688;2022-09-02T01:43:26;101368.78;;;15.27;48.20
23307;BME280;11822;52.470;10.688;2022-09-02T01:45:53;101375.00;;;15.24;48.52
23307;BME280;11822;52.470;10.688;2022-09-02T01:48:18;101373.38;;;15.23;48.42
23307;BME280;11822;52.470;10.688;2022-09-02T01:50:45;101366.63;;;15.20;48.46
23307;BME280;11822;52.470;10.688;2022-09-02T01:53:11;101372.47;;;15.19;48.62
23307;BME280;11822;52.470;10.688;2022-09-02T01:55:36;101370.88;;;15.18;48.61
23307;BME280;11822;52.470;10.688;2022-09-02T01:58:02;101364.91;;;15.16;48.61
23307;BME280;11822;52.470;10.688;2022-09-02T02:00:27;101361.72;;;15.14;48.65
23307;BME280;11822;52.470;10.688;2022-09-02T02:02:53;101354.13;;;15.11;48.96
23307;BME280;11822;52.470;10.688;2022-09-02T02:05:18;101363.88;;;15.08;49.19
23307;BME280;11822;52.470;10.688;2022-09-02T02:07:43;101357.47;;;15.04;49.20
23307;BME280;11822;52.470;10.688;2022-09-02T02:10:10;101355.06;;;15.02;49.30
23307;BME280;11822;52.470;10.688;2022-09-02T02:12:36;101353.81;;;15.00;49.37
23307;BME280;11822;52.470;10.688;2022-09-02T02:15:03;101353.00;;;14.99;49.39
23307;BME280;11822;52.470;10.688;2022-09-02T02:17:28;101349.78;;;14.97;49.36
23307;BME280;11822;52.470;10.688;2022-09-02T02:19:53;101350.94;;;14.96;49.40
23307;BME280;11822;52.470;10.688;2022-09-02T02:22:19;101355.97;;;14.94;49.38
23307;BME280;11822;52.470;10.688;2022-09-02T02:24:45;101349.25;;;14.91;49.42
23307;BME280;11822;52.470;10.688;2022-09-02T02:27:10;101350.38;;;14.90;49.74
23307;BME280;11822;52.470;10.688;2022-09-02T02:29:35;101354.63;;;14.88;49.74
23307;BME280;11822;52.470;10.688;2022-09-02T02:32:00;101353.38;;;14.85;49.72
23307;BME280;11822;52.470;10.688;2022-09-02T02:34:26;101349.34;;;14.83;49.89
23307;BME280;11822;52.470;10.688;2022-09-02T02:36:51;101351.63;;;14.81;49.81
23307;BME280;11822;52.470;10.688;2022-09-02T02:39:16;101339.03;;;14.80;50.12
23307;BME280;11822;52.470;10.688;2022-09-02T02:41:41;101336.28;;;14.80;50.04
23307;BME280;11822;52.470;10.688;2022-09-02T02:44:07;101341.00;;;14.79;50.26
23307;BME280;11822;52.470;10.688;2022-09-02T02:46:32;101338.94;;;14.76;50.57
23307;BME280;11822;52.470;10.688;2022-09-02T02:48:59;101342.81;;;14.75;50.47
23307;BME280;11822;52.470;10.688;2022-09-02T02:51:25;101330.53;;;14.72;50.49
23307;BME280;11822;52.470;10.688;2022-09-02T02:53:50;101329.31;;;14.70;50.68
23307;BME280;11822;52.470;10.688;2022-09-02T02:56:15;101325.72;;;14.69;50.83
23307;BME280;11822;52.470;10.688;2022-09-02T02:58:40;101330.41;;;14.69;50.62
23307;BME280;11822;52.470;10.688;2022-09-02T03:01:06;101325.25;;;14.67;50.75
23307;BME280;11822;52.470;10.688;2022-09-02T03:03:31;101322.84;;;14.66;50.78
23307;BME280;11822;52.470;10.688;2022-09-02T03:05:57;101327.06;;;14.63;50.97
23307;BME280;11822;52.470;10.688;2022-09-02T03:08:22;101325.84;;;14.60;50.98
23307;BME280;11822;52.470;10.688;2022-09-02T03:10:49;101325.84;;;14.60;50.92
23307;BME280;11822;52.470;10.688;2022-09-02T03:13:18;101325.38;;;14.58;51.16
23307;BME280;11822;52.470;10.688;2022-09-02T03:15:45;101328.13;;;14.58;51.21
23307;BME280;11822;52.470;10.688;2022-09-02T03:18:10;101318.97;;;14.54;51.18
23307;BME280;11822;52.470;10.688;2022-09-02T03:20:36;101324.81;;;14.53;51.05
23307;BME280;11822;52.470;10.688;2022-09-02T03:23:03;101321.59;;;14.51;51.30
23307;BME280;11822;52.470;10.688;2022-09-02T03:25:29;101315.97;;;14.47;51.22
23307;BME280;11822;52.470;10.688;2022-09-02T03:27:55;101319.53;;;14.47;51.23
23307;BME280;11822;52.470;10.688;2022-09-02T03:30:22;101325.72;;;14.44;51.33
23307;BME280;11822;52.470;10.688;2022-09-02T03:32:49;101320.09;;;14.41;51.32
23307;BME280;11822;52.470;10.688;2022-09-02T03:35:16;101319.63;;;14.39;51.33
23307;BME280;11822;52.470;10.688;2022-09-02T03:37:42;101317.56;;;14.36;51.51
23307;BME280;11822;52.470;10.688;2022-09-02T03:40:09;101311.59;;;14.33;51.76
23307;BME280;11822;52.470;10.688;2022-09-02T03:42:35;101309.22;;;14.32;51.68
23307;BME280;11822;52.470;10.688;2022-09-02T03:45:01;101307.59;;;14.31;51.52
23307;BME280;11822;52.470;10.688;2022-09-02T03:47:26;101311.50;;;14.30;51.74
23307;BME280;11822;52.470;10.688;2022-09-02T03:49:54;101311.03;;;14.28;51.58
23307;BME280;11822;52.470;10.688;2022-09-02T03:52:19;101305.06;;;14.26;51.53
23307;BME280;11822;52.470;10.688;2022-09-02T03:54:45;101302.19;;;14.22;51.53
23307;BME280;11822;52.470;10.688;2022-09-02T03:57:10;101306.44;;;14.19;51.79
23307;BME280;11822;52.470;10.688;2022-09-02T03:59:35;101299.66;;;14.17;51.84
23307;BME280;11822;52.470;10.688;2022-09-02T04:02:00;101306.31;;;14.16;51.95
23307;BME280;11822;52.470;10.688;2022-09-02T04:04:27;101312.16;;;14.14;51.90
23307;BME280;11822;52.470;10.688;2022-09-02T04:06:52;101301.53;;;14.13;51.97
23307;BME280;11822;52.470;10.688;2022-09-02T04:09:17;101315.13;;;14.09;52.31
23307;BME280;11822;52.470;10.688;2022-09-02T04:11:43;101313.88;;;14.07;52.43
23307;BME280;11822;52.470;10.688;2022-09-02T04:14:08;101314.09;;;14.01;52.52
23307;BME280;11822;52.470;10.688;2022-09-02T04:16:34;101315.22;;;14.00;52.62
23307;BME280;11822;52.470;10.688;2022-09-02T04:18:59;101310.06;;;13.99;52.39
23307;BME280;11822;52.470;10.688;2022-09-02T04:21:28;101315.22;;;14.00;52.59
23307;BME280;11822;52.470;10.688;2022-09-02T04:23:55;101311.66;;;14.00;52.60
23307;BME280;11822;52.470;10.688;2022-09-02T04:26:20;101316.69;;;13.98;52.72
23307;BME280;11822;52.470;10.688;2022-09-02T04:28:47;101313.47;;;13.96;52.44
23307;BME280;11822;52.470;10.688;2022-09-02T04:31:14;101313.00;;;13.94;52.72
23307;BME280;11822;52.470;10.688;2022-09-02T04:33:40;101313.38;;;13.92;52.81
23307;BME280;11822;52.470;10.688;2022-09-02T04:36:06;101319.19;;;13.91;52.80
23307;BME280;11822;52.470;10.688;2022-09-02T04:38:32;101316.44;;;13.91;52.91
23307;BME280;11822;52.470;10.688;2022-09-02T04:40:57;101311.63;;;13.87;52.96
23307;BME280;11822;52.470;10.688;2022-09-02T04:43:22;101315.50;;;13.86;53.16
23307;BME280;11822;52.470;10.688;2022-09-02T04:45:47;101310.69;;;13.83;53.29
23307;BME280;11822;52.470;10.688;2022-09-02T04:48:13;101311.03;;;13.82;53.25
23307;BME280;11822;52.470;10.688;2022-09-02T04:50:39;101314.13;;;13.80;53.32
23307;BME280;11822;52.470;10.688;2022-09-02T04:53:04;101310.22;;;13.81;53.22
23307;BME280;11822;52.470;10.688;2022-09-02T04:55:30;101316.88;;;13.80;53.35
23307;BME280;11822;52.470;10.688;2022-09-02T04:57:56;101315.72;;;13.81;53.41
23307;BME280;11822;52.470;10.688;2022-09-02T05:00:21;101322.81;;;13.82;53.30
23307;BME280;11822;52.470;10.688;2022-09-02T05:02:46;101315.41;;;13.83;53.25
23307;BME280;11822;52.470;10.688;2022-09-02T05:05:12;101315.88;;;13.85;53.28
23307;BME280;11822;52.470;10.688;2022-09-02T05:07:37;101313.91;;;13.85;53.28
23307;BME280;11822;52.470;10.688;2022-09-02T05:10:03;101316.66;;;13.85;53.36
23307;BME280;11822;52.470;10.688;2022-09-02T05:12:32;101313.91;;;13.85;53.35
23307;BME280;11822;52.470;10.688;2022-09-02T05:14:59;101320.22;;;13.86;53.40
23307;BME280;11822;52.470;10.688;2022-09-02T05:17:25;101320.69;;;13.88;53.52
23307;BME280;11822;52.470;10.688;2022-09-02T05:19:51;101307.72;;;13.88;53.36
23307;BME280;11822;52.470;10.688;2022-09-02T05:22:16;101315.66;;;13.90;53.60
23307;BME280;11822;52.470;10.688;2022-09-02T05:24:42;101314.50;;;13.91;53.48
23307;BME280;11822;52.470;10.688;2022-09-02T05:27:08;101315.31;;;13.92;53.65
23307;BME280;11822;52.470;10.688;2022-09-02T05:29:33;101325.16;;;13.93;53.70
23307;BME280;11822;52.470;10.688;2022-09-02T05:31:59;101315.75;;;13.94;53.85
23307;BME280;11822;52.470;10.688;2022-09-02T05:34:24;101324.81;;;13.94;54.05
23307;BME280;11822;52.470;10.688;2022-09-02T05:36:49;101322.88;;;13.95;54.03
23307;BME280;11822;52.470;10.688;2022-09-02T05:39:15;101321.72;;;13.96;54.03
23307;BME280;11822;52.470;10.688;2022-09-02T05:41:40;101321.41;;;13.97;54.27
23307;BME280;11822;52.470;10.688;2022-09-02T05:44:06;101321.03;;;13.99;54.07
23307;BME280;11822;52.470;10.688;2022-09-02T05:46:31;101316.00;;;14.01;54.26
23307;BME280;11822;52.470;10.688;2022-09-02T05:48:56;101313.72;;;14.03;54.28
23307;BME280;11822;52.470;10.688;2022-09-02T05:51:36;101317.41;;;14.07;54.09
23307;BME280;11822;52.470;10.688;2022-09-02T05:54:05;101316.72;;;14.10;54.32
23307;BME280;11822;52.470;10.688;2022-09-02T05:56:30;101316.03;;;14.13;54.33
23307;BME280;11822;52.470;10.688;2022-09-02T05:58:55;101313.75;;;14.15;54.11
23307;BME280;11822;52.470;10.688;2022-09-02T06:01:22;101309.66;;;14.22;54.19
23307;BME280;11822;52.470;10.688;2022-09-02T06:03:47;101312.84;;;14.24;54.32
23307;BME280;11822;52.470;10.688;2022-09-02T06:06:12;101314.56;;;14.28;54.30
23307;BME280;11822;52.470;10.688;2022-09-02T06:08:38;101313.56;;;14.33;54.41
23307;BME280;11822;52.470;10.688;2022-09-02T06:11:05;101318.38;;;14.36;54.31
23307;BME280;11822;52.470;10.688;2022-09-02T06:13:33;101318.16;;;14.41;54.34
23307;BME280;11822;52.470;10.688;2022-09-02T06:15:58;101313.22;;;14.47;54.46
23307;BME280;11822;52.470;10.688;2022-09-02T06:18:25;101313.34;;;14.51;54.35
23307;BME280;11822;52.470;10.688;2022-09-02T06:20:50;101323.78;;;14.57;54.69
23307;BME280;11822;52.470;10.688;2022-09-02T06:23:15;101313.31;;;14.63;54.76
23307;BME280;11822;52.470;10.688;2022-09-02T06:25:42;101315.56;;;14.70;54.54
23307;BME280;11822;52.470;10.688;2022-09-02T06:28:08;101322.06;;;14.77;54.75
23307;BME280;11822;52.470;10.688;2022-09-02T06:30:34;101315.31;;;14.87;55.00
23307;BME280;11822;52.470;10.688;2022-09-02T06:33:01;101319.19;;;14.99;55.33
23307;BME280;11822;52.470;10.688;2022-09-02T06:35:28;101321.56;;;15.13;54.94
23307;BME280;11822;52.470;10.688;2022-09-02T06:37:53;101318.34;;;15.23;54.83
23307;BME280;11822;52.470;10.688;2022-09-02T06:40:18;101319.25;;;15.27;54.71
23307;BME280;11822;52.470;10.688;2022-09-02T06:42:43;101319.34;;;15.31;54.85
23307;BME280;11822;52.470;10.688;2022-09-02T06:45:09;101321.41;;;15.34;54.88
23307;BME280;11822;52.470;10.688;2022-09-02T06:47:34;101321.97;;;15.40;54.94
23307;BME280;11822;52.470;10.688;2022-09-02T06:49:59;101319.31;;;15.43;54.88
23307;BME280;11822;52.470;10.688;2022-09-02T06:52:25;101306.44;;;15.47;55.43
23307;BME280;11822;52.470;10.688;2022-09-02T06:54:51;101318.81;;;15.54;55.20
23307;BME280;11822;52.470;10.688;2022-09-02T06:57:18;101321.78;;;15.61;54.98
23307;BME280;11822;52.470;10.688;2022-09-02T06:59:43;101320.47;;;15.71;55.00
23307;BME280;11822;52.470;10.688;2022-09-02T07:02:09;101317.91;;;15.78;54.88
23307;BME280;11822;52.470;10.688;2022-09-02T07:04:34;101318.56;;;15.87;54.69
23307;BME280;11822;52.470;10.688;2022-09-02T07:07:18;101323.84;;;15.92;54.83
23307;BME280;11822;52.470;10.688;2022-09-02T07:09:43;101317.63;;;15.95;55.01
23307;BME280;11822;52.470;10.688;2022-09-02T07:12:08;101316.53;;;16.00;54.67
23307;BME280;11822;52.470;10.688;2022-09-02T07:14:38;101322.63;;;16.06;54.74
23307;BME280;11822;52.470;10.688;2022-09-02T07:17:04;101318.44;;;16.12;54.96
23307;BME280;11822;52.470;10.688;2022-09-02T07:19:29;101319.34;;;16.16;54.85
23307;BME280;11822;52.470;10.688;2022-09-02T07:21:55;101318.72;;;16.23;54.67
23307;BME280;11822;52.470;10.688;2022-09-02T07:24:20;101326.81;;;16.32;54.63
23307;BME280;11822;52.470;10.688;2022-09-02T07:26:46;101325.03;;;16.39;54.38
23307;BME280;11822;52.470;10.688;2022-09-02T07:29:11;101320.47;;;16.47;54.25
23307;BME280;11822;52.470;10.688;2022-09-02T07:31:38;101326.16;;;16.54;54.31
23307;BME280;11822;52.470;10.688;2022-09-02T07:34:04;101323.59;;;16.62;54.06
23307;BME280;11822;52.470;10.688;2022-09-02T07:36:30;101331.69;;;16.71;54.22
23307;BME280;11822;52.470;10.688;2022-09-02T07:38:56;101323.22;;;16.79;54.05
23307;BME280;11822;52.470;10.688;2022-09-02T07:41:22;101323.81;;;16.89;53.84
23307;BME280;11822;52.470;10.688;2022-09-02T07:43:47;101321.31;;;16.99;54.06
23307;BME280;11822;52.470;10.688;2022-09-02T07:46:13;101322.38;;;17.11;53.70
23307;BME280;11822;52.470;10.688;2022-09-02T07:48:38;101312.34;;;17.22;53.67
23307;BME280;11822;52.470;10.688;2022-09-02T07:51:04;101316.94;;;17.34;53.26
23307;BME280;11822;52.470;10.688;2022-09-02T07:53:29;101321.53;;;17.46;53.38
23307;BME280;11822;52.470;10.688;2022-09-02T07:55:56;101316.59;;;17.55;53.28
23307;BME280;11822;52.470;10.688;2022-09-02T07:58:21;101323.47;;;17.65;52.87
23307;BME280;11822;52.470;10.688;2022-09-02T08:00:47;101312.63;;;17.76;52.67
23307;BME280;11822;52.470;10.688;2022-09-02T08:03:12;101316.03;;;17.89;52.94
23307;BME280;11822;52.470;10.688;2022-09-02T08:05:38;101317.38;;;17.99;52.59
23307;BME280;11822;52.470;10.688;2022-09-02T08:08:05;101318.41;;;18.10;52.41
23307;BME280;11822;52.470;10.688;2022-09-02T08:10:31;101317.38;;;18.19;52.54
23307;BME280;11822;52.470;10.688;2022-09-02T08:12:57;101317.50;;;18.26;52.11
23307;BME280;11822;52.470;10.688;2022-09-02T08:15:24;101321.16;;;18.34;52.05
23307;BME280;11822;52.470;10.688;2022-09-02T08:17:52;101316.13;;;18.39;51.92
23307;BME280;11822;52.470;10.688;2022-09-02T08:20:18;101315.13;;;18.51;51.99
23307;BME280;11822;52.470;10.688;2022-09-02T08:22:43;101320.03;;;18.61;51.58
23307;BME280;11822;52.470;10.688;2022-09-02T08:25:09;101321.34;;;18.71;51.46
23307;BME280;11822;52.470;10.688;2022-09-02T08:27:35;101315.56;;;18.80;51.51
23307;BME280;11822;52.470;10.688;2022-09-02T08:30:00;101319.22;;;18.88;51.39
23307;BME280;11822;52.470;10.688;2022-09-02T08:32:29;101315.84;;;18.98;51.06
23307;BME280;11822;52.470;10.688;2022-09-02T08:34:56;101317.53;;;19.07;51.00
23307;BME280;11822;52.470;10.688;2022-09-02T08:37:22;101317.69;;;19.17;51.01
23307;BME280;11822;52.470;10.688;2022-09-02T08:39:47;101315.00;;;19.25;50.57
23307;BME280;11822;52.470;10.688;2022-09-02T08:42:23;101311.16;;;19.33;50.53
23307;BME280;11822;52.470;10.688;2022-09-02T08:44:52;101307.72;;;19.43;50.24
23307;BME280;11822;52.470;10.688;2022-09-02T08:47:21;101309.00;;;19.53;50.24
23307;BME280;11822;52.470;10.688;2022-09-02T08:49:49;101309.56;;;19.66;50.08
23307;BME280;11822;52.470;10.688;2022-09-02T08:52:19;101307.72;;;19.77;49.57
23307;BME280;11822;52.470;10.688;2022-09-02T08:54:50;101304.59;;;19.83;49.43
23307;BME280;11822;52.470;10.688;2022-09-02T08:57:19;101303.44;;;19.87;49.00
23307;BME280;11822;52.470;10.688;2022-09-02T08:59:44;101308.69;;;19.96;48.46
23307;BME280;11822;52.470;10.688;2022-09-02T09:07:42;101295.44;;;20.16;48.21
23307;BME280;11822;52.470;10.688;2022-09-02T09:10:14;101292.31;;;20.21;48.10
23307;BME280;11822;52.470;10.688;2022-09-02T09:12:52;101291.97;;;20.30;47.94
23307;BME280;11822;52.470;10.688;2022-09-02T09:17:47;101292.50;;;20.47;47.68
23307;BME280;11822;52.470;10.688;2022-09-02T09:20:17;101290.13;;;20.52;47.66
23307;BME280;11822;52.470;10.688;2022-09-02T09:22:44;101287.03;;;20.61;46.92
23307;BME280;11822;52.470;10.688;2022-09-02T09:25:13;101284.69;;;20.67;47.06
23307;BME280;11822;52.470;10.688;2022-09-02T09:27:40;101282.38;;;20.76;46.57
23307;BME280;11822;52.470;10.688;2022-09-02T09:30:06;101286.00;;;20.84;46.68
23307;BME280;11822;52.470;10.688;2022-09-02T09:32:33;101277.31;;;20.89;46.14
23307;BME280;11822;52.470;10.688;2022-09-02T09:39:51;101270.25;;;21.06;45.90
23307;BME280;11822;52.470;10.688;2022-09-02T09:42:27;101256.78;;;21.12;45.30
23307;BME280;11822;52.470;10.688;2022-09-02T09:44:53;101260.78;;;21.18;45.57
23307;BME280;11822;52.470;10.688;2022-09-02T09:47:20;101249.69;;;21.25;45.50
23307;BME280;11822;52.470;10.688;2022-09-02T09:52:30;101251.72;;;21.39;44.71
23307;BME280;11822;52.470;10.688;2022-09-02T09:55:15;101251.34;;;21.48;44.78
23307;BME280;11822;52.470;10.688;2022-09-02T09:57:42;101248.59;;;21.59;43.79
23307;BME280;11822;52.470;10.688;2022-09-02T10:02:54;101235.53;;;21.74;43.58
23307;BME280;11822;52.470;10.688;2022-09-02T10:07:58;101233.53;;;21.85;42.80
23307;BME280;11822;52.470;10.688;2022-09-02T10:10:24;101235.13;;;21.94;42.56
23307;BME280;11822;52.470;10.688;2022-09-02T10:12:51;101240.31;;;22.03;42.08
23307;BME280;11822;52.470;10.688;2022-09-02T10:15:21;101229.56;;;22.12;42.05
23307;BME280;11822;52.470;10.688;2022-09-02T10:17:54;101231.16;;;22.24;41.36
23307;BME280;11822;52.470;10.688;2022-09-02T10:30:51;101211.56;;;22.85;39.89
23307;BME280;11822;52.470;10.688;2022-09-02T10:36:15;101208.66;;;23.11;39.47
23307;BME280;11822;52.470;10.688;2022-09-02T10:41:15;101205.00;;;23.21;38.58
23307;BME280;11822;52.470;10.688;2022-09-02T10:46:09;101212.59;;;23.17;37.88
23307;BME280;11822;52.470;10.688;2022-09-02T10:53:42;101203.84;;;23.15;37.38
23307;BME280;11822;52.470;10.688;2022-09-02T10:58:43;101193.38;;;23.37;37.28
23307;BME280;11822;52.470;10.688;2022-09-02T11:01:11;101192.16;;;23.42;37.36
23307;BME280;11822;52.470;10.688;2022-09-02T11:03:55;101190.56;;;23.41;37.17
23307;BME280;11822;52.470;10.688;2022-09-02T11:06:26;101185.78;;;23.41;37.25
23307;BME280;11822;52.470;10.688;2022-09-02T11:09:05;101182.19;;;23.44;37.17
23307;BME280;11822;52.470;10.688;2022-09-02T11:11:35;101182.97;;;23.45;36.20
23307;BME280;11822;52.470;10.688;2022-09-02T11:18:58;101177.00;;;23.43;35.68
23307;BME280;11822;52.470;10.688;2022-09-02T11:21:28;101172.19;;;23.47;35.42
23307;BME280;11822;52.470;10.688;2022-09-02T11:26:37;101170.19;;;23.51;35.43
23307;BME280;11822;52.470;10.688;2022-09-02T11:29:13;101168.59;;;23.50;35.07
23307;BME280;11822;52.470;10.688;2022-09-02T11:31:43;101159.41;;;23.57;34.87
23307;BME280;11822;52.470;10.688;2022-09-02T11:36:40;101163.16;;;23.81;34.76
23307;BME280;11822;52.470;10.688;2022-09-02T11:39:09;101150.38;;;23.87;34.84
23307;BME280;11822;52.470;10.688;2022-09-02T11:44:28;101150.31;;;23.95;34.58
23307;BME280;11822;52.470;10.688;2022-09-02T11:47:05;101143.97;;;23.90;34.34
23307;BME280;11822;52.470;10.688;2022-09-02T11:52:08;101132.03;;;23.86;34.13
23307;BME280;11822;52.470;10.688;2022-09-02T11:54:42;101138.78;;;23.89;33.87
23307;BME280;11822;52.470;10.688;2022-09-02T11:57:11;101141.50;;;23.96;33.75
23307;BME280;11822;52.470;10.688;2022-09-02T12:02:34;101127.50;;;24.03;33.82
23307;BME280;11822;52.470;10.688;2022-09-02T12:07:46;101136.31;;;24.02;33.71
23307;BME280;11822;52.470;10.688;2022-09-02T12:13:08;101124.38;;;23.98;33.35
23307;BME280;11822;52.470;10.688;2022-09-02T12:15:34;101128.78;;;23.99;33.43
23307;BME280;11822;52.470;10.688;2022-09-02T12:23:09;101122.03;;;23.93;33.27
23307;BME280;11822;52.470;10.688;2022-09-02T12:25:36;101116.00;;;23.94;33.24
23307;BME280;11822;52.470;10.688;2022-09-02T12:35:59;101108.03;;;24.00;33.36
23307;BME280;11822;52.470;10.688;2022-09-02T12:41:00;101100.72;;;24.13;33.37
23307;BME280;11822;52.470;10.688;2022-09-02T12:46:26;101103.06;;;24.15;33.47
23307;BME280;11822;52.470;10.688;2022-09-02T12:49:09;101094.38;;;24.09;34.00
23307;BME280;11822;52.470;10.688;2022-09-02T12:51:59;101092.88;;;24.01;33.86
23307;BME280;11822;52.470;10.688;2022-09-02T12:57:07;101078.47;;;24.06;33.80
23307;BME280;11822;52.470;10.688;2022-09-02T12:59:39;101085.56;;;24.14;32.95
23307;BME280;11822;52.470;10.688;2022-09-02T13:04:45;101078.22;;;24.28;32.68
23307;BME280;11822;52.470;10.688;2022-09-02T13:10:11;101073.41;;;24.28;32.88
23307;BME280;11822;52.470;10.688;2022-09-02T13:23:00;101070.00;;;24.13;32.76
23307;BME280;11822;52.470;10.688;2022-09-02T13:31:01;101068.09;;;24.07;32.32
23307;BME280;11822;52.470;10.688;2022-09-02T13:33:29;101060.59;;;23.96;31.96
23307;BME280;11822;52.470;10.688;2022-09-02T13:35:55;101055.91;;;23.86;32.22
23307;BME280;11822;52.470;10.688;2022-09-02T13:38:23;101049.63;;;23.78;32.14
23307;BME280;11822;52.470;10.688;2022-09-02T13:40:49;101054.47;;;23.74;32.70
23307;BME280;11822;52.470;10.688;2022-09-02T13:45:44;101051.28;;;23.75;32.42
23307;BME280;11822;52.470;10.688;2022-09-02T13:50:48;101052.72;;;23.87;32.47
23307;BME280;11822;52.470;10.688;2022-09-02T13:53:29;101040.00;;;23.86;32.75
23307;BME280;11822;52.470;10.688;2022-09-02T13:55:57;101048.72;;;23.88;32.70
23307;BME280;11822;52.470;10.688;2022-09-02T14:01:15;101035.16;;;23.90;32.51
23307;BME280;11822;52.470;10.688;2022-09-02T14:03:43;101032.28;;;23.98;32.88
23307;BME280;11822;52.470;10.688;2022-09-02T14:06:09;101027.78;;;24.11;32.43
23307;BME280;11822;52.470;10.688;2022-09-02T14:08:35;101017.69;;;24.21;31.81
23307;BME280;11822;52.470;10.688;2022-09-02T14:11:01;101018.88;;;24.24;32.27
23307;BME280;11822;52.470;10.688;2022-09-02T14:13:27;101020.38;;;24.28;32.10
23307;BME280;11822;52.470;10.688;2022-09-02T14:15:52;101022.25;;;24.39;32.32
23307;BME280;11822;52.470;10.688;2022-09-02T14:18:18;101014.53;;;24.46;32.17
23307;BME280;11822;52.470;10.688;2022-09-02T14:21:00;101012.13;;;24.48;31.67
23307;BME280;11822;52.470;10.688;2022-09-02T14:23:28;101011.34;;;24.48;31.55
23307;BME280;11822;52.470;10.688;2022-09-02T14:26:00;101016.97;;;24.44;31.77
23307;BME280;11822;52.470;10.688;2022-09-02T14:28:27;101017.44;;;24.39;31.49
23307;BME280;11822;52.470;10.688;2022-09-02T14:31:03;101021.06;;;24.36;31.75
23307;BME280;11822;52.470;10.688;2022-09-02T14:36:08;101012.53;;;24.19;31.15
23307;BME280;11822;52.470;10.688;2022-09-02T14:38:48;101003.41;;;24.15;31.31
23307;BME280;11822;52.470;10.688;2022-09-02T14:46:16;100997.22;;;23.97;31.42
23307;BME280;11822;52.470;10.688;2022-09-02T14:48:49;101003.28;;;23.88;32.12